Time;durP1;ratioP1;P1;durP2;ratioP2;P2;SDS_P1;SDS_P2;PMS_P1;PMS_P2;Temp;Humidity;BMP_temperature;BMP_pressure;BME280_temperature;BME280_humidity;BME280_pressure;Samples;Min_cycle;Max_cycle;Signal;HPM_P1;HPM_P2
2021/12/28 00:01:01;;;;;;;3.83;2.75;;;21.50;37.80;;;;;;5037186;28;20029;-55
2021/12/28 00:03:27;;;;;;;3.72;2.70;;;21.50;37.80;;;;;;5052086;28;20123;-57
2021/12/28 00:05:53;;;;;;;3.58;2.67;;;21.50;37.80;;;;;;5054449;28;20021;-57
2021/12/28 00:08:19;;;;;;;3.75;2.70;;;21.50;37.90;;;;;;5036313;28;20090;-58
2021/12/28 00:10:46;;;;;;;4.05;2.45;;;21.50;37.90;;;;;;5037801;28;20158;-53
2021/12/28 00:13:13;;;;;;;3.60;2.47;;;21.50;37.90;;;;;;5053838;28;20052;-58
2021/12/28 00:18:38;;;;;;;3.03;2.40;;;21.40;37.90;;;;;;5000838;28;20045;-56
2021/12/28 00:21:06;;;;;;;3.13;2.60;;;21.40;37.90;;;;;;5053317;28;20309;-54
2021/12/28 00:23:41;;;;;;;2.90;2.38;;;21.40;37.90;;;;;;5044000;28;20040;-57
2021/12/28 00:26:14;;;;;;;3.72;2.45;;;21.40;37.90;;;;;;5038077;28;20381;-56
2021/12/28 00:28:42;;;;;;;3.13;2.35;;;21.40;37.90;;;;;;5045680;28;20029;-58
2021/12/28 00:31:11;;;;;;;2.45;2.00;;;21.40;38.10;;;;;;5037260;28;20036;-56
2021/12/28 00:33:37;;;;;;;3.75;2.53;;;21.30;38.10;;;;;;5035203;28;20040;-55
2021/12/28 00:36:03;;;;;;;3.90;2.65;;;21.30;38.20;;;;;;5047718;28;20022;-55
2021/12/28 00:38:29;;;;;;;4.10;2.80;;;21.20;38.20;;;;;;5035193;28;20033;-55
2021/12/28 00:40:59;;;;;;;3.72;2.35;;;21.20;38.30;;;;;;5041186;28;20098;-58
2021/12/28 00:43:27;;;;;;;2.90;2.17;;;21.20;38.40;;;;;;5035270;28;20113;-56
2021/12/28 00:45:53;;;;;;;3.17;2.35;;;21.20;38.40;;;;;;5022457;28;20328;-55
2021/12/28 00:48:19;;;;;;;3.75;2.58;;;21.10;38.40;;;;;;5040822;28;20025;-57
2021/12/28 00:50:45;;;;;;;3.78;2.47;;;21.10;38.40;;;;;;5053650;28;20043;-52
2021/12/28 00:53:11;;;;;;;3.33;2.28;;;21.10;38.50;;;;;;5041796;28;20033;-54
2021/12/28 00:55:37;;;;;;;3.05;2.40;;;21.10;38.50;;;;;;5044902;28;20069;-58
2021/12/28 00:58:04;;;;;;;2.92;2.15;;;21.00;38.50;;;;;;5035200;28;20037;-58
2021/12/28 01:00:33;;;;;;;3.50;2.15;;;21.00;38.50;;;;;;5043350;28;20128;-56
2021/12/28 01:03:01;;;;;;;3.65;2.25;;;21.00;38.60;;;;;;5053684;28;20041;-56
2021/12/28 01:05:28;;;;;;;3.35;2.38;;;21.00;38.60;;;;;;5046974;28;20384;-55
2021/12/28 01:07:55;;;;;;;2.70;2.00;;;21.00;38.60;;;;;;5052958;28;20344;-57
2021/12/28 01:10:28;;;;;;;2.28;1.80;;;21.00;38.60;;;;;;5055420;28;20375;-58
2021/12/28 01:12:55;;;;;;;2.75;1.95;;;20.90;38.60;;;;;;5051693;28;20067;-59
2021/12/28 01:15:23;;;;;;;2.90;1.90;;;20.90;39.30;;;;;;5050458;28;20044;-54
2021/12/28 01:17:49;;;;;;;3.17;2.08;;;20.90;38.70;;;;;;5035111;28;20041;-59
2021/12/28 01:20:15;;;;;;;3.00;2.03;;;20.90;38.70;;;;;;5050963;28;20044;-55
2021/12/28 01:22:43;;;;;;;2.60;1.90;;;20.90;38.70;;;;;;5053633;28;20025;-58
2021/12/28 01:25:11;;;;;;;3.47;2.00;;;20.90;38.60;;;;;;5049884;28;20032;-54
2021/12/28 01:27:37;;;;;;;2.10;1.90;;;20.90;38.60;;;;;;5053918;28;20478;-58
2021/12/28 01:30:05;;;;;;;2.88;1.73;;;20.90;38.50;;;;;;5054223;28;20048;-60
2021/12/28 01:32:31;;;;;;;2.40;1.45;;;21.00;38.50;;;;;;5048530;28;20053;-56
2021/12/28 01:34:57;;;;;;;3.20;2.13;;;21.00;38.50;;;;;;5034135;28;20511;-58
2021/12/28 01:37:23;;;;;;;2.60;1.67;;;21.00;38.40;;;;;;5044153;28;20090;-56
2021/12/28 01:39:48;;;;;;;3.20;1.80;;;21.00;38.40;;;;;;5050515;28;20029;-58
2021/12/28 01:42:14;;;;;;;2.67;1.50;;;21.00;38.40;;;;;;5047226;28;20435;-54
2021/12/28 01:44:40;;;;;;;2.67;1.75;;;21.10;38.40;;;;;;5054540;28;20020;-55
2021/12/28 01:47:06;;;;;;;2.53;1.80;;;21.10;38.40;;;;;;5049934;28;20087;-58
2021/12/28 01:49:32;;;;;;;3.45;1.73;;;21.10;38.40;;;;;;5034620;28;20116;-58
2021/12/28 01:51:59;;;;;;;2.85;1.60;;;21.10;38.40;;;;;;5034461;28;20509;-55
2021/12/28 01:54:25;;;;;;;2.85;1.70;;;21.10;38.40;;;;;;5034815;28;20060;-57
2021/12/28 01:56:51;;;;;;;2.78;1.90;;;21.10;38.30;;;;;;5042320;28;20079;-57
2021/12/28 01:59:20;;;;;;;2.45;1.60;;;21.10;38.30;;;;;;5052141;28;20033;-57
2021/12/28 02:01:47;;;;;;;2.38;1.52;;;21.10;38.30;;;;;;5045659;28;20017;-57
2021/12/28 02:04:27;;;;;;;1.85;1.30;;;21.10;38.20;;;;;;5045223;28;20139;-57
2021/12/28 02:07:02;;;;;;;3.28;1.67;;;21.10;38.20;;;;;;5044844;28;20029;-58
2021/12/28 02:09:28;;;;;;;2.13;1.50;;;21.10;38.30;;;;;;5052307;28;20056;-54
2021/12/28 02:11:54;;;;;;;2.28;1.33;;;21.10;38.20;;;;;;5043847;28;20017;-60
2021/12/28 02:14:21;;;;;;;2.17;1.30;;;21.20;38.20;;;;;;5052952;28;20458;-57
2021/12/28 02:16:47;;;;;;;2.90;1.50;;;21.10;38.20;;;;;;5049722;28;20029;-58
2021/12/28 02:19:14;;;;;;;2.70;1.40;;;21.10;38.20;;;;;;5043707;28;20362;-55
2021/12/28 02:21:40;;;;;;;3.00;1.40;;;21.10;38.10;;;;;;5049455;28;20298;-57
2021/12/28 02:24:07;;;;;;;1.90;1.17;;;21.10;38.20;;;;;;5043670;28;20032;-58
2021/12/28 02:26:34;;;;;;;2.70;1.60;;;21.20;38.20;;;;;;5058037;28;20028;-60
2021/12/28 02:29:00;;;;;;;1.92;1.33;;;21.10;38.10;;;;;;5042928;28;20053;-55
2021/12/28 02:31:26;;;;;;;2.22;1.30;;;21.10;38.10;;;;;;5050212;28;20167;-54
2021/12/28 02:33:53;;;;;;;2.28;1.30;;;21.20;38.10;;;;;;5047063;28;20090;-56
2021/12/28 02:36:20;;;;;;;2.92;1.67;;;21.10;38.10;;;;;;5056973;28;20017;-57
2021/12/28 02:38:47;;;;;;;2.22;1.30;;;21.10;38.00;;;;;;5044625;28;20081;-59
2021/12/28 02:41:13;;;;;;;3.25;1.55;;;21.10;38.00;;;;;;5038945;28;20065;-55
2021/12/28 02:43:41;;;;;;;5.10;1.60;;;21.10;38.00;;;;;;5041191;28;20064;-58
2021/12/28 02:46:08;;;;;;;3.72;1.50;;;21.10;38.00;;;;;;5053594;28;20025;-56
2021/12/28 02:48:35;;;;;;;2.20;1.23;;;21.10;38.00;;;;;;5037813;28;20036;-59
2021/12/28 02:51:07;;;;;;;2.25;1.25;;;21.10;38.00;;;;;;5056824;28;20029;-58
2021/12/28 02:53:34;;;;;;;1.88;1.20;;;21.10;38.10;;;;;;5056956;28;20035;-58
2021/12/28 02:56:00;;;;;;;2.70;1.17;;;21.10;38.00;;;;;;5055926;28;20033;-57
2021/12/28 02:58:35;;;;;;;2.28;1.30;;;21.10;38.10;;;;;;5056027;28;20387;-58
2021/12/28 03:01:09;;;;;;;3.78;1.45;;;21.10;38.00;;;;;;5055203;28;20030;-57
2021/12/28 03:03:36;;;;;;;2.28;1.30;;;21.10;38.00;;;;;;5054838;28;20048;-59
2021/12/28 03:06:05;;;;;;;2.50;1.10;;;21.10;38.00;;;;;;5040574;28;20063;-57
2021/12/28 03:08:33;;;;;;;2.00;1.23;;;21.10;38.00;;;;;;5056164;28;20029;-57
2021/12/28 03:11:01;;;;;;;2.03;1.20;;;21.10;37.90;;;;;;5054793;28;20144;-59
2021/12/28 03:13:34;;;;;;;2.53;1.35;;;21.10;37.90;;;;;;5057090;28;20029;-57
2021/12/28 03:16:00;;;;;;;2.58;1.40;;;21.10;37.90;;;;;;5054378;28;20033;-58
2021/12/28 03:18:27;;;;;;;2.05;1.30;;;21.10;37.90;;;;;;5037400;28;20037;-55
2021/12/28 03:20:53;;;;;;;2.38;1.27;;;21.00;37.80;;;;;;5055302;28;20029;-58
2021/12/28 03:23:22;;;;;;;1.73;1.00;;;21.10;37.80;;;;;;5038252;28;20025;-57
2021/12/28 03:25:48;;;;;;;2.03;1.20;;;21.10;37.80;;;;;;5041228;28;20025;-57
2021/12/28 03:28:29;;;;;;;1.45;1.10;;;21.10;37.80;;;;;;5055505;28;20036;-59
2021/12/28 03:30:57;;;;;;;2.45;1.27;;;21.10;37.80;;;;;;5056427;28;20111;-54
2021/12/28 03:33:26;;;;;;;2.08;1.30;;;21.10;37.80;;;;;;5048354;28;20414;-56
2021/12/28 03:35:52;;;;;;;3.33;1.63;;;21.10;37.70;;;;;;5055196;28;20033;-53
2021/12/28 03:38:18;;;;;;;1.70;1.00;;;21.10;37.70;;;;;;5054982;28;20352;-51
2021/12/28 03:40:45;;;;;;;2.30;1.20;;;21.00;37.70;;;;;;5054492;28;20108;-57
2021/12/28 03:43:11;;;;;;;1.70;1.15;;;21.00;37.70;;;;;;5055375;28;20444;-58
2021/12/28 03:45:37;;;;;;;2.58;1.25;;;21.00;37.60;;;;;;5036445;28;20064;-53
2021/12/28 03:48:04;;;;;;;1.45;1.10;;;21.00;37.60;;;;;;5036685;28;20029;-54
2021/12/28 03:50:34;;;;;;;2.45;1.30;;;21.00;37.50;;;;;;5036549;28;20025;-56
2021/12/28 03:53:00;;;;;;;2.17;1.30;;;21.00;37.50;;;;;;5054828;28;20114;-55
2021/12/28 03:55:26;;;;;;;2.45;1.08;;;21.00;37.50;;;;;;5037934;28;20017;-59
2021/12/28 03:57:53;;;;;;;1.90;1.00;;;21.00;37.50;;;;;;5054297;28;20049;-54
2021/12/28 04:00:22;;;;;;;1.77;1.00;;;21.10;37.60;;;;;;5054882;28;20024;-56
2021/12/28 04:02:48;;;;;;;2.53;1.13;;;21.00;37.50;;;;;;5038223;28;20037;-54
2021/12/28 04:05:16;;;;;;;2.35;1.10;;;21.00;37.50;;;;;;5052837;28;20021;-56
2021/12/28 04:07:43;;;;;;;1.83;0.98;;;21.00;37.50;;;;;;5054074;28;20025;-57
2021/12/28 04:10:11;;;;;;;2.65;1.17;;;21.00;37.50;;;;;;5040279;28;20026;-58
2021/12/28 04:12:38;;;;;;;2.33;1.20;;;21.00;37.40;;;;;;5018586;28;20044;-55
2021/12/28 04:15:06;;;;;;;3.78;1.00;;;21.00;37.40;;;;;;5049926;28;20029;-55
2021/12/28 04:17:36;;;;;;;1.52;0.95;;;21.00;37.40;;;;;;5054499;28;20044;-53
2021/12/28 04:20:02;;;;;;;1.30;0.80;;;21.00;37.40;;;;;;5042362;28;20029;-58
2021/12/28 04:22:28;;;;;;;1.48;1.00;;;21.00;37.40;;;;;;5050829;28;20037;-56
2021/12/28 04:24:54;;;;;;;2.30;0.80;;;21.00;37.40;;;;;;5041626;28;20484;-53
2021/12/28 04:27:20;;;;;;;1.90;1.05;;;21.00;37.40;;;;;;5035329;28;20029;-56
2021/12/28 04:29:46;;;;;;;2.53;1.23;;;21.00;37.40;;;;;;5047141;28;20025;-57
2021/12/28 04:32:12;;;;;;;1.80;1.05;;;21.00;37.40;;;;;;5055390;28;20025;-55
2021/12/28 04:34:37;;;;;;;1.70;0.90;;;21.00;38.00;;;;;;5035631;28;20028;-54
2021/12/28 04:37:03;;;;;;;1.10;0.90;;;21.00;37.40;;;;;;5035311;28;20044;-56
2021/12/28 04:39:29;;;;;;;1.40;0.98;;;21.00;37.40;;;;;;5049660;28;20108;-57
2021/12/28 04:41:55;;;;;;;2.45;1.10;;;21.00;37.40;;;;;;5055249;28;20493;-56
2021/12/28 04:44:25;;;;;;;1.67;1.10;;;21.00;37.40;;;;;;5053958;28;20017;-55
2021/12/28 04:46:53;;;;;;;1.65;1.00;;;21.00;37.40;;;;;;5038183;28;20040;-53
2021/12/28 04:49:21;;;;;;;1.35;1.00;;;20.90;37.30;;;;;;5036160;28;20509;-55
2021/12/28 04:51:47;;;;;;;1.50;0.90;;;21.00;37.40;;;;;;5047593;28;20040;-59
2021/12/28 04:54:14;;;;;;;1.95;1.02;;;20.90;37.30;;;;;;5041754;28;20037;-53
2021/12/28 04:56:41;;;;;;;1.52;1.00;;;20.90;37.30;;;;;;5045757;28;20043;-60
2021/12/28 04:59:07;;;;;;;1.42;0.93;;;21.00;37.40;;;;;;5053787;28;20035;-52
2021/12/28 05:01:36;;;;;;;1.70;1.10;;;21.00;37.40;;;;;;5053159;28;20112;-57
2021/12/28 05:04:03;;;;;;;0.85;0.60;;;21.00;37.40;;;;;;5041686;28;20060;-57
2021/12/28 05:06:29;;;;;;;1.73;1.02;;;20.90;37.40;;;;;;5040854;28;20040;-59
2021/12/28 05:08:57;;;;;;;2.03;1.00;;;21.00;37.40;;;;;;5042416;28;20068;-59
2021/12/28 05:11:23;;;;;;;2.28;1.10;;;21.00;37.40;;;;;;5035297;28;20425;-56
2021/12/28 05:13:48;;;;;;;1.48;0.90;;;21.00;37.50;;;;;;5037132;28;20057;-59
2021/12/28 05:16:15;;;;;;;2.45;1.08;;;21.00;37.40;;;;;;5040626;28;20309;-54
2021/12/28 05:18:42;;;;;;;2.08;1.02;;;21.00;37.50;;;;;;5046577;28;20452;-57
2021/12/28 05:21:08;;;;;;;1.65;1.02;;;21.00;37.50;;;;;;5054349;28;20456;-57
2021/12/28 05:23:34;;;;;;;1.85;1.15;;;21.00;37.50;;;;;;5046005;28;20107;-55
2021/12/28 05:26:00;;;;;;;1.63;0.82;;;21.00;37.50;;;;;;5055116;28;20424;-57
2021/12/28 05:28:26;;;;;;;2.45;1.08;;;21.00;37.50;;;;;;5053578;28;20040;-58
2021/12/28 05:30:55;;;;;;;2.17;0.80;;;21.00;37.50;;;;;;5052942;28;20029;-58
2021/12/28 05:33:21;;;;;;;1.70;0.90;;;21.00;37.50;;;;;;5047016;28;20029;-56
2021/12/28 05:35:47;;;;;;;1.70;0.95;;;21.00;37.50;;;;;;5035482;28;20382;-54
2021/12/28 05:38:13;;;;;;;2.05;1.10;;;21.00;37.50;;;;;;5036996;28;20048;-60
2021/12/28 05:40:39;;;;;;;2.13;0.93;;;21.00;37.50;;;;;;5054851;28;20029;-57
2021/12/28 05:43:05;;;;;;;1.55;1.00;;;20.90;37.60;;;;;;5052145;28;20108;-55
2021/12/28 05:45:32;;;;;;;2.70;1.30;;;21.00;37.60;;;;;;5049686;28;20100;-55
2021/12/28 05:47:58;;;;;;;2.85;1.23;;;20.90;37.60;;;;;;5050405;28;20274;-56
2021/12/28 05:50:24;;;;;;;1.67;0.90;;;20.90;37.60;;;;;;5035152;28;20029;-58
2021/12/28 05:52:49;;;;;;;2.00;0.80;;;20.90;37.70;;;;;;5038428;28;20068;-58
2021/12/28 05:55:15;;;;;;;2.17;0.80;;;20.90;37.70;;;;;;5039469;28;20033;-58
2021/12/28 05:57:41;;;;;;;1.77;0.93;;;20.90;37.70;;;;;;5042145;28;20462;-57
2021/12/28 06:00:10;;;;;;;3.22;1.10;;;20.90;37.70;;;;;;5058579;28;20025;-58
2021/12/28 06:02:36;;;;;;;2.38;0.80;;;20.90;37.80;;;;;;5053846;28;20049;-56
2021/12/28 06:05:03;;;;;;;2.83;0.95;;;20.90;37.80;;;;;;5058318;28;20433;-58
2021/12/28 06:07:28;;;;;;;2.35;1.00;;;20.90;37.80;;;;;;5055884;28;20039;-59
2021/12/28 06:09:55;;;;;;;2.08;1.00;;;20.90;37.80;;;;;;5044264;28;20096;-56
2021/12/28 06:12:22;;;;;;;2.13;0.90;;;20.90;37.80;;;;;;5055648;28;20033;-57
2021/12/28 06:14:48;;;;;;;2.08;1.10;;;20.90;37.80;;;;;;5056683;28;20389;-58
2021/12/28 06:17:14;;;;;;;2.28;1.17;;;20.90;37.80;;;;;;5056499;28;20032;-57
2021/12/28 06:19:40;;;;;;;2.53;0.98;;;20.90;37.90;;;;;;5053839;28;20470;-57
2021/12/28 06:22:05;;;;;;;2.75;1.30;;;20.90;37.90;;;;;;5044511;28;20025;-58
2021/12/28 06:24:31;;;;;;;1.67;0.82;;;20.90;37.90;;;;;;5037973;28;20036;-53
2021/12/28 06:26:57;;;;;;;2.45;1.00;;;20.90;37.90;;;;;;5043551;28;20036;-57
2021/12/28 06:29:23;;;;;;;1.73;1.10;;;20.90;37.90;;;;;;5057342;28;20340;-57
2021/12/28 06:31:49;;;;;;;3.50;1.00;;;20.90;37.90;;;;;;5047688;28;20013;-59
2021/12/28 06:34:15;;;;;;;1.90;0.90;;;20.90;37.90;;;;;;5044928;28;20340;-54
2021/12/28 06:36:42;;;;;;;3.03;1.27;;;20.90;37.90;;;;;;5053127;28;20440;-56
2021/12/28 06:39:09;;;;;;;2.40;1.20;;;20.90;37.90;;;;;;5037231;28;20033;-57
2021/12/28 06:41:34;;;;;;;3.25;1.10;;;20.90;38.00;;;;;;5022875;28;20022;-59
2021/12/28 06:44:00;;;;;;;3.30;1.17;;;20.90;38.00;;;;;;5057871;28;20029;-58
2021/12/28 06:46:26;;;;;;;2.70;1.27;;;20.90;38.00;;;;;;5055861;28;20428;-60
2021/12/28 06:48:52;;;;;;;2.78;1.02;;;20.90;38.10;;;;;;5057536;28;20340;-58
2021/12/28 06:51:18;;;;;;;1.75;1.00;;;20.90;38.10;;;;;;5049024;28;20033;-56
2021/12/28 06:53:43;;;;;;;2.20;1.23;;;20.90;38.10;;;;;;5037071;28;20064;-58
2021/12/28 06:56:09;;;;;;;2.40;1.02;;;20.90;38.10;;;;;;5037734;28;20106;-58
2021/12/28 06:58:35;;;;;;;3.22;1.20;;;20.90;38.10;;;;;;5027462;28;20068;-56
2021/12/28 07:01:01;;;;;;;3.42;1.10;;;20.90;38.20;;;;;;5041155;28;20040;-56
2021/12/28 07:03:27;;;;;;;3.10;1.20;;;20.90;38.20;;;;;;5039829;28;20052;-57
2021/12/28 07:05:53;;;;;;;3.72;1.30;;;20.90;38.20;;;;;;5037311;28;20017;-58
2021/12/28 07:08:18;;;;;;;2.20;0.98;;;20.90;38.20;;;;;;5036994;28;20429;-57
2021/12/28 07:10:44;;;;;;;2.75;1.38;;;20.90;38.30;;;;;;5048159;28;20029;-53
2021/12/28 07:13:10;;;;;;;2.30;0.90;;;20.90;38.30;;;;;;5038305;28;20425;-60
2021/12/28 07:15:36;;;;;;;1.83;0.80;;;20.90;38.30;;;;;;5038518;28;20029;-56
2021/12/28 07:18:02;;;;;;;1.75;0.90;;;20.90;38.40;;;;;;5055102;28;20494;-56
2021/12/28 07:20:28;;;;;;;1.60;0.85;;;20.90;38.40;;;;;;5058358;28;20016;-56
2021/12/28 07:22:54;;;;;;;1.85;1.02;;;20.90;38.40;;;;;;5055860;28;20024;-58
2021/12/28 07:25:20;;;;;;;3.65;1.00;;;20.90;38.40;;;;;;5049796;28;20190;-56
2021/12/28 07:27:46;;;;;;;2.22;1.10;;;20.90;38.40;;;;;;5053698;28;20025;-55
2021/12/28 07:30:12;;;;;;;1.90;1.10;;;20.90;38.50;;;;;;5048210;28;20029;-58
2021/12/28 07:32:40;;;;;;;1.45;0.90;;;20.90;38.50;;;;;;5052985;28;20056;-57
2021/12/28 07:35:07;;;;;;;2.22;0.88;;;20.90;38.50;;;;;;5038970;28;20025;-57
2021/12/28 07:37:33;;;;;;;3.05;1.27;;;20.90;38.50;;;;;;5052992;28;20486;-58
2021/12/28 07:39:59;;;;;;;2.53;0.82;;;20.90;38.60;;;;;;5040682;28;20025;-55
2021/12/28 07:42:25;;;;;;;2.10;1.00;;;20.90;38.60;;;;;;5036997;28;20337;-58
2021/12/28 07:44:50;;;;;;;1.98;0.90;;;20.90;38.60;;;;;;5047809;28;20087;-59
2021/12/28 07:47:17;;;;;;;3.22;1.30;;;20.90;38.60;;;;;;5044374;28;20025;-57
2021/12/28 07:49:43;;;;;;;1.88;0.90;;;20.90;38.70;;;;;;5037850;28;20029;-55
2021/12/28 07:52:09;;;;;;;1.55;0.93;;;20.90;38.80;;;;;;5047541;28;20026;-56
2021/12/28 07:54:35;;;;;;;3.58;0.90;;;21.00;39.00;;;;;;5042389;28;20037;-57
2021/12/28 07:57:01;;;;;;;2.50;1.02;;;21.00;39.10;;;;;;5037468;28;20072;-57
2021/12/28 07:59:27;;;;;;;3.25;1.13;;;21.10;39.10;;;;;;5043033;28;20321;-57
2021/12/28 08:01:53;;;;;;;2.25;0.82;;;21.20;39.00;;;;;;5053904;28;20167;-60
2021/12/28 08:04:20;;;;;;;3.05;1.10;;;21.20;38.90;;;;;;5044998;28;20368;-59
2021/12/28 08:06:46;;;;;;;2.08;0.73;;;21.30;38.80;;;;;;5035988;28;20021;-54
2021/12/28 08:09:12;;;;;;;2.42;1.02;;;21.40;38.70;;;;;;5051238;28;20310;-59
2021/12/28 08:11:38;;;;;;;1.50;0.90;;;21.50;38.60;;;;;;5055244;28;20025;-60
2021/12/28 08:14:04;;;;;;;2.70;1.08;;;21.50;38.50;;;;;;5044815;28;20017;-58
2021/12/28 08:16:31;;;;;;;3.80;1.00;;;21.60;38.50;;;;;;5041366;28;20104;-55
2021/12/28 08:18:57;;;;;;;1.30;0.80;;;21.70;38.40;;;;;;5049037;28;20033;-59
2021/12/28 08:21:23;;;;;;;2.30;1.00;;;21.70;38.30;;;;;;5050671;28;20020;-58
2021/12/28 08:23:49;;;;;;;2.72;1.08;;;21.80;38.30;;;;;;5043660;28;20021;-57
2021/12/28 08:26:16;;;;;;;2.75;1.23;;;21.80;38.20;;;;;;5055674;28;20113;-56
2021/12/28 08:28:42;;;;;;;2.08;0.90;;;21.80;38.30;;;;;;5040120;28;20017;-58
2021/12/28 08:31:09;;;;;;;2.13;1.10;;;21.90;38.30;;;;;;5043452;28;20059;-56
2021/12/28 08:33:35;;;;;;;2.67;1.23;;;21.90;38.20;;;;;;5043577;28;20344;-58
2021/12/28 08:36:00;;;;;;;1.77;1.05;;;22.00;38.30;;;;;;5041001;28;20108;-54
2021/12/28 08:38:27;;;;;;;3.63;1.13;;;22.00;38.20;;;;;;5049331;28;20045;-57
2021/12/28 08:40:53;;;;;;;2.42;1.02;;;22.00;38.20;;;;;;5052648;28;20021;-57
2021/12/28 08:43:19;;;;;;;1.25;0.80;;;22.10;38.20;;;;;;5047499;28;20024;-60
2021/12/28 08:45:45;;;;;;;1.63;0.73;;;22.10;38.10;;;;;;5046488;28;20086;-59
2021/12/28 08:48:11;;;;;;;1.55;0.70;;;22.20;38.10;;;;;;5052346;28;20021;-60
2021/12/28 08:50:39;;;;;;;2.25;0.98;;;22.20;38.10;;;;;;5045337;28;20025;-60
2021/12/28 08:53:04;;;;;;;1.33;0.70;;;22.30;38.00;;;;;;5034138;28;20029;-55
2021/12/28 08:55:31;;;;;;;3.03;1.17;;;22.40;38.00;;;;;;5041392;28;20033;-56
2021/12/28 08:57:57;;;;;;;1.75;0.82;;;22.40;37.90;;;;;;5042764;28;20037;-58
2021/12/28 09:00:28;;;;;;;2.08;0.93;;;22.40;37.90;;;;;;5048412;28;20154;-58
2021/12/28 09:02:56;;;;;;;2.05;1.10;;;22.50;37.90;;;;;;5042156;28;20363;-60
2021/12/28 09:05:22;;;;;;;2.58;1.25;;;22.50;37.90;;;;;;5046751;28;20032;-60
2021/12/28 09:07:48;;;;;;;2.40;1.48;;;22.50;37.80;;;;;;5047762;28;20048;-55
2021/12/28 09:10:14;;;;;;;3.50;1.48;;;22.60;37.90;;;;;;5046538;28;20445;-58
2021/12/28 09:12:40;;;;;;;2.75;1.98;;;22.60;37.80;;;;;;5043109;28;20028;-59
2021/12/28 09:15:08;;;;;;;2.63;1.55;;;22.60;37.80;;;;;;5034709;28;20025;-53
2021/12/28 09:17:34;;;;;;;3.92;1.40;;;22.60;37.80;;;;;;5051349;28;20072;-56
2021/12/28 09:20:05;;;;;;;3.38;1.83;;;22.60;37.80;;;;;;5053209;28;20078;-57
2021/12/28 09:22:31;;;;;;;3.22;1.92;;;22.70;37.80;;;;;;5037224;28;20103;-55
2021/12/28 09:24:57;;;;;;;3.08;1.67;;;22.70;37.70;;;;;;5056124;28;20057;-57
2021/12/28 09:27:23;;;;;;;2.78;1.65;;;22.80;37.70;;;;;;5061410;28;20114;-55
2021/12/28 09:29:49;;;;;;;2.90;1.40;;;22.80;38.30;;;;;;5048857;28;20083;-57
2021/12/28 09:32:16;;;;;;;2.08;1.52;;;22.80;37.60;;;;;;5057482;28;20033;-57
2021/12/28 09:34:44;;;;;;;1.88;1.40;;;22.90;37.60;;;;;;5041357;28;20033;-55
2021/12/28 09:37:10;;;;;;;2.78;1.70;;;22.90;37.60;;;;;;5054658;28;20051;-55
2021/12/28 09:39:36;;;;;;;2.55;1.65;;;22.90;37.50;;;;;;5061185;28;20090;-56
2021/12/28 09:42:03;;;;;;;2.88;1.70;;;22.90;37.50;;;;;;5059088;28;20111;-59
2021/12/28 09:44:32;;;;;;;2.28;1.60;;;23.00;37.50;;;;;;5061291;28;20078;-59
2021/12/28 09:46:59;;;;;;;2.38;1.52;;;23.00;37.50;;;;;;5048986;28;20033;-58
2021/12/28 09:49:27;;;;;;;3.03;1.80;;;23.00;37.50;;;;;;5045705;28;20017;-54
2021/12/28 09:51:54;;;;;;;2.15;1.70;;;23.00;37.40;;;;;;5045719;28;20052;-56
2021/12/28 09:54:24;;;;;;;2.47;1.92;;;23.10;37.50;;;;;;5041608;28;20082;-58
2021/12/28 09:56:50;;;;;;;2.92;1.88;;;23.00;37.40;;;;;;5041528;28;20131;-56
2021/12/28 09:59:16;;;;;;;3.38;2.08;;;23.00;37.50;;;;;;5042464;28;20053;-59
2021/12/28 10:01:42;;;;;;;3.47;2.20;;;23.10;37.50;;;;;;5052399;28;20067;-57
2021/12/28 10:04:08;;;;;;;2.75;2.10;;;23.10;37.60;;;;;;5004066;28;20398;-53
2021/12/28 10:06:34;;;;;;;3.00;2.13;;;23.00;37.50;;;;;;5009928;28;20022;-59
2021/12/28 10:09:20;;;;;;;2.58;2.22;;;23.00;37.50;;;;;;5021274;28;20161;-57
2021/12/28 10:11:53;;;;;;;2.80;2.30;;;23.00;37.50;;;;;;5013327;28;20046;-57
2021/12/28 10:14:23;;;;;;;3.13;2.60;;;23.00;37.60;;;;;;5001315;28;20106;-55
2021/12/28 10:16:54;;;;;;;3.88;2.63;;;22.90;37.60;;;;;;5015656;28;20119;-59
2021/12/28 10:19:40;;;;;;;3.35;2.72;;;22.90;37.70;;;;;;5019347;28;20041;-57
2021/12/28 10:22:26;;;;;;;3.50;2.22;;;22.90;37.70;;;;;;5002618;28;20022;-56
2021/12/28 10:24:55;;;;;;;4.38;2.72;;;22.90;38.00;;;;;;5007112;28;20030;-60
2021/12/28 10:27:23;;;;;;;3.25;2.42;;;22.90;38.20;;;;;;5017735;28;20049;-56
2021/12/28 10:29:48;;;;;;;3.50;2.65;;;22.80;38.30;;;;;;5019206;28;20079;-55
2021/12/28 10:32:26;;;;;;;3.95;2.60;;;22.80;38.50;;;;;;5006701;28;20022;-58
2021/12/28 10:34:54;;;;;;;3.85;2.90;;;22.80;38.60;;;;;;5005747;28;20027;-58
2021/12/28 10:37:30;;;;;;;3.08;2.65;;;22.70;38.70;;;;;;5010507;28;20038;-57
2021/12/28 10:39:59;;;;;;;4.85;3.25;;;22.70;38.80;;;;;;5012207;28;20040;-59
2021/12/28 10:42:49;;;;;;;4.18;3.13;;;22.60;38.90;;;;;;5017601;28;20117;-58
2021/12/28 10:45:48;;;;;;;3.90;2.80;;;22.70;39.10;;;;;;5015133;28;20092;-57
2021/12/28 10:48:21;;;;;;;4.80;3.10;;;22.60;39.10;;;;;;4996813;28;20035;-59
2021/12/28 10:50:49;;;;;;;3.15;2.65;;;22.50;39.20;;;;;;5002837;28;20341;-60
2021/12/28 10:53:35;;;;;;;4.50;3.17;;;22.50;39.30;;;;;;5017298;28;20122;-57
2021/12/28 10:56:02;;;;;;;4.53;3.70;;;22.50;39.40;;;;;;5012876;28;20030;-59
2021/12/28 10:58:47;;;;;;;4.50;3.50;;;22.50;39.40;;;;;;5013285;28;20045;-58
2021/12/28 11:01:17;;;;;;;4.38;3.40;;;22.40;39.40;;;;;;5007209;28;20045;-56
2021/12/28 11:03:52;;;;;;;4.35;3.38;;;22.50;39.50;;;;;;5035827;28;20037;-56
2021/12/28 11:06:20;;;;;;;4.68;3.45;;;22.50;39.50;;;;;;5038265;28;20044;-55
2021/12/28 11:08:49;;;;;;;4.50;3.65;;;22.40;39.50;;;;;;5043923;28;20387;-55
2021/12/28 11:11:17;;;;;;;4.63;3.53;;;22.40;39.60;;;;;;5054251;28;20117;-60
2021/12/28 11:13:43;;;;;;;4.85;3.83;;;22.40;39.70;;;;;;5048307;28;20031;-60
2021/12/28 11:16:12;;;;;;;5.97;4.10;;;22.40;39.80;;;;;;5052699;28;20621;-60
2021/12/28 11:18:46;;;;;;;6.10;4.13;;;22.40;39.80;;;;;;5054347;28;20079;-60
2021/12/28 11:21:28;;;;;;;4.75;4.13;;;22.40;40.00;;;;;;5055200;28;20490;-58
2021/12/28 11:24:04;;;;;;;5.72;4.47;;;22.40;40.00;;;;;;5041571;28;20355;-62
2021/12/28 11:26:37;;;;;;;3.63;3.20;;;22.40;40.10;;;;;;5071936;28;20041;-58
2021/12/28 11:29:13;;;;;;;4.85;3.50;;;22.40;40.00;;;;;;5043557;28;20033;-55
2021/12/28 11:31:55;;;;;;;6.90;5.20;;;22.40;40.00;;;;;;5051125;28;20098;-60
2021/12/28 11:34:34;;;;;;;6.40;5.28;;;22.40;40.00;;;;;;5051298;28;20094;-58
2021/12/28 11:37:04;;;;;;;6.05;4.97;;;22.30;40.00;;;;;;5038785;28;20037;-60
2021/12/28 11:39:33;;;;;;;7.10;5.85;;;22.40;40.20;;;;;;5050238;28;20053;-54
2021/12/28 11:42:00;;;;;;;5.15;4.38;;;22.40;40.40;;;;;;5032840;28;20029;-58
2021/12/28 11:44:27;;;;;;;4.82;3.70;;;22.50;40.10;;;;;;5050087;28;20351;-57
2021/12/28 11:46:56;;;;;;;5.47;4.20;;;22.50;39.70;;;;;;5047835;28;20033;-58
2021/12/28 11:49:28;;;;;;;6.20;4.82;;;22.50;39.50;;;;;;5049499;28;20432;-54
2021/12/28 11:52:00;;;;;;;5.05;4.55;;;22.50;39.60;;;;;;5044691;28;20053;-55
2021/12/28 11:54:31;;;;;;;5.85;4.60;;;22.50;39.80;;;;;;5029891;28;20428;-57
2021/12/28 11:57:04;;;;;;;5.95;4.70;;;22.60;40.00;;;;;;5049094;28;20028;-52
2021/12/28 11:59:32;;;;;;;5.80;4.40;;;22.60;40.10;;;;;;5047930;28;20026;-58
2021/12/28 12:02:01;;;;;;;5.38;4.07;;;22.60;40.10;;;;;;5050398;28;20060;-57
2021/12/28 12:07:05;;;;;;;4.03;3.33;;;22.70;40.20;;;;;;5052900;28;20020;-58
2021/12/28 12:09:34;;;;;;;4.55;3.33;;;22.70;40.20;;;;;;5056115;28;20021;-57
2021/12/28 12:12:15;;;;;;;3.85;2.80;;;22.80;40.20;;;;;;5051807;28;20394;-53
2021/12/28 12:14:50;;;;;;;3.30;2.90;;;22.80;40.30;;;;;;5051022;28;20041;-57
2021/12/28 12:20:00;;;;;;;3.17;2.42;;;22.80;40.30;;;;;;5037267;28;20153;-56
2021/12/28 12:22:32;;;;;;;4.32;3.22;;;22.80;40.30;;;;;;5054784;28;20356;-56
2021/12/28 12:25:02;;;;;;;3.65;3.05;;;22.90;40.30;;;;;;5054955;28;20028;-57
2021/12/28 12:27:39;;;;;;;5.00;3.15;;;23.00;40.20;;;;;;5038330;28;20120;-50
2021/12/28 12:30:17;;;;;;;4.28;3.65;;;23.00;40.10;;;;;;5045901;28;20020;-50
2021/12/28 12:33:07;;;;;;;5.10;3.80;;;23.10;40.00;;;;;;5052485;28;20025;-56
2021/12/28 12:35:52;;;;;;;4.68;3.50;;;23.10;40.00;;;;;;5044310;28;20025;-54
2021/12/28 12:38:24;;;;;;;4.30;3.58;;;23.20;39.90;;;;;;5041496;28;20032;-49
2021/12/28 12:40:55;;;;;;;4.53;3.58;;;23.20;39.90;;;;;;5037122;28;20080;-53
2021/12/28 12:43:27;;;;;;;4.20;3.70;;;23.20;39.90;;;;;;5037241;28;20033;-53
2021/12/28 12:45:52;;;;;;;4.00;3.30;;;23.30;39.90;;;;;;5053407;28;20444;-54
2021/12/28 12:48:45;;;;;;;3.53;3.22;;;23.30;39.80;;;;;;5046858;28;20021;-57
2021/12/28 12:51:22;;;;;;;3.90;3.00;;;23.30;39.70;;;;;;5012236;28;20350;-48
2021/12/28 12:54:16;;;;;;;4.55;3.10;;;23.30;39.70;;;;;;5040196;28;20096;-48
2021/12/28 12:56:51;;;;;;;4.05;2.88;;;23.40;39.70;;;;;;5034185;28;20044;-52
2021/12/28 12:59:35;;;;;;;4.28;3.08;;;23.40;39.70;;;;;;5058070;28;20029;-52
2021/12/28 13:02:23;;;;;;;2.90;2.60;;;23.40;39.60;;;;;;5041441;28;20028;-52